Time;durP1;ratioP1;P1;durP2;ratioP2;P2;SDS_P1;SDS_P2;PMS_P1;PMS_P2;Temp;Humidity;BMP_temperature;BMP_pressure;BME280_temperature;BME280_humidity;BME280_pressure;Samples;Min_cycle;Max_cycle;Signal;HPM_P1;HPM_P2
2022/03/02 00:00:38;;;;;;;19.75;13.75;;;5.40;99.90;;;;;;4925818;29;20118;-72
2022/03/02 00:03:03;;;;;;;20.20;14.95;;;5.40;99.90;;;;;;4958333;28;20043;-73
2022/03/02 00:05:29;;;;;;;29.73;16.98;;;5.30;99.90;;;;;;4959448;28;20047;-72
2022/03/02 00:07:55;;;;;;;19.80;15.95;;;5.40;99.90;;;;;;4945489;28;20039;-72
2022/03/02 00:10:21;;;;;;;15.82;13.93;;;5.40;99.90;;;;;;4948030;28;20051;-72
2022/03/02 00:12:46;;;;;;;20.40;15.65;;;5.40;99.90;;;;;;4947795;28;20051;-72
2022/03/02 00:15:12;;;;;;;21.75;16.23;;;5.40;99.90;;;;;;4949309;28;20055;-71
2022/03/02 00:17:37;;;;;;;25.23;14.70;;;5.40;99.90;;;;;;4947823;29;20058;-72
2022/03/02 00:20:04;;;;;;;27.40;18.20;;;5.40;99.90;;;;;;4946090;28;20051;-72
2022/03/02 00:22:30;;;;;;;25.90;15.60;;;5.30;99.90;;;;;;4948355;28;20062;-72
2022/03/02 00:24:55;;;;;;;18.55;14.65;;;5.30;99.90;;;;;;4946207;28;20461;-71
2022/03/02 00:27:24;;;;;;;17.75;15.27;;;5.30;99.90;;;;;;4947256;28;20035;-72
2022/03/02 00:29:51;;;;;;;14.82;13.38;;;5.30;99.90;;;;;;4947517;28;20129;-72
2022/03/02 00:32:17;;;;;;;27.80;15.70;;;5.30;99.90;;;;;;4948712;28;20070;-72
2022/03/02 00:34:43;;;;;;;20.88;15.43;;;5.30;99.90;;;;;;4947911;28;20513;-71
2022/03/02 00:37:08;;;;;;;21.17;14.75;;;5.30;99.90;;;;;;4947544;28;20039;-71
2022/03/02 00:39:35;;;;;;;19.02;17.20;;;5.30;99.90;;;;;;4947465;28;20467;-72
2022/03/02 00:42:06;;;;;;;21.52;15.95;;;5.30;99.90;;;;;;4947571;28;20043;-72
2022/03/02 00:44:32;;;;;;;20.88;13.60;;;5.30;99.90;;;;;;4941090;28;20079;-72
2022/03/02 00:46:57;;;;;;;17.92;13.43;;;5.30;99.90;;;;;;4926712;29;20043;-72
2022/03/02 00:49:26;;;;;;;18.70;16.17;;;5.30;99.90;;;;;;4961753;28;20512;-72
2022/03/02 00:51:53;;;;;;;26.48;15.88;;;5.30;99.90;;;;;;4947902;28;20101;-72
2022/03/02 00:54:19;;;;;;;27.58;16.90;;;5.30;99.90;;;;;;4947230;28;20078;-72
2022/03/02 00:56:44;;;;;;;23.00;14.27;;;5.30;99.90;;;;;;4948471;28;20453;-72
2022/03/02 00:59:10;;;;;;;26.63;16.67;;;5.30;99.90;;;;;;4948027;29;20459;-72
2022/03/02 01:01:35;;;;;;;23.05;17.77;;;5.30;99.90;;;;;;4948654;28;20401;-71
2022/03/02 01:04:01;;;;;;;22.27;16.40;;;5.30;99.90;;;;;;4945923;28;20090;-72
2022/03/02 01:06:26;;;;;;;23.92;16.77;;;5.30;99.90;;;;;;4948186;29;20036;-72
2022/03/02 01:08:52;;;;;;;37.78;17.23;;;5.30;99.90;;;;;;4946891;28;20524;-72
2022/03/02 01:11:18;;;;;;;29.50;15.23;;;5.30;99.90;;;;;;4946539;29;20046;-72
2022/03/02 01:13:43;;;;;;;17.48;14.95;;;5.30;99.90;;;;;;4948395;29;20552;-72
2022/03/02 01:16:09;;;;;;;22.05;14.93;;;5.30;99.90;;;;;;4947866;29;20074;-72
2022/03/02 01:18:34;;;;;;;22.27;16.30;;;5.30;99.90;;;;;;4945621;28;20054;-72
2022/03/02 01:21:00;;;;;;;20.02;12.65;;;5.30;99.90;;;;;;4946713;29;20740;-72
2022/03/02 01:23:26;;;;;;;18.70;14.82;;;5.30;99.90;;;;;;4947286;28;20054;-72
2022/03/02 01:25:52;;;;;;;27.67;17.73;;;5.30;99.90;;;;;;4947399;28;20048;-71
2022/03/02 01:28:17;;;;;;;23.02;16.15;;;5.30;99.90;;;;;;4946485;29;20055;-72
2022/03/02 01:30:43;;;;;;;16.42;14.02;;;5.30;99.90;;;;;;4947976;28;20509;-72
2022/03/02 01:33:08;;;;;;;22.00;15.95;;;5.30;99.90;;;;;;4946560;28;20748;-71
2022/03/02 01:35:34;;;;;;;20.45;14.93;;;5.30;99.90;;;;;;4947369;29;20179;-72
2022/03/02 01:38:00;;;;;;;21.35;17.05;;;5.30;99.90;;;;;;4946068;28;20426;-72
2022/03/02 01:40:25;;;;;;;21.73;16.35;;;5.30;99.90;;;;;;4947128;29;20047;-72
2022/03/02 01:42:51;;;;;;;17.67;13.70;;;5.30;99.90;;;;;;4945873;28;20491;-72
2022/03/02 01:45:17;;;;;;;19.77;12.80;;;5.30;99.90;;;;;;4934258;29;20131;-72
2022/03/02 01:47:43;;;;;;;20.65;15.80;;;5.20;99.90;;;;;;4933219;29;20078;-71
2022/03/02 01:50:11;;;;;;;20.98;13.95;;;5.20;99.90;;;;;;4944601;29;20043;-72
2022/03/02 01:52:37;;;;;;;20.23;14.60;;;5.20;99.90;;;;;;4946130;28;20047;-72
2022/03/02 01:55:04;;;;;;;18.33;12.90;;;5.20;99.90;;;;;;4945140;28;20073;-71
2022/03/02 01:57:29;;;;;;;28.23;15.48;;;5.20;99.90;;;;;;4947152;28;20105;-72
2022/03/02 01:59:55;;;;;;;17.10;14.18;;;5.20;99.90;;;;;;4945613;29;20043;-72
2022/03/02 02:02:21;;;;;;;24.13;15.38;;;5.20;99.90;;;;;;4946974;29;20043;-71
2022/03/02 02:04:47;;;;;;;20.77;15.02;;;5.20;99.90;;;;;;4946111;29;20055;-72
2022/03/02 02:07:12;;;;;;;17.95;13.95;;;5.20;99.90;;;;;;4947158;28;20494;-72
2022/03/02 02:09:41;;;;;;;23.27;15.43;;;5.20;99.90;;;;;;4947083;28;20086;-72
2022/03/02 02:12:06;;;;;;;20.83;14.35;;;5.20;99.90;;;;;;4946901;29;20035;-72
2022/03/02 02:14:32;;;;;;;29.73;15.15;;;5.20;99.90;;;;;;4945407;28;20418;-72
2022/03/02 02:16:58;;;;;;;16.30;14.65;;;5.10;99.90;;;;;;4946571;28;20043;-72
2022/03/02 02:19:24;;;;;;;18.08;15.50;;;5.10;99.90;;;;;;4945473;28;20566;-72
2022/03/02 02:21:50;;;;;;;15.93;14.23;;;5.10;99.90;;;;;;4944799;28;20039;-72
2022/03/02 02:24:16;;;;;;;18.73;14.50;;;5.10;99.90;;;;;;4946556;29;20086;-72
2022/03/02 02:26:42;;;;;;;17.08;13.18;;;5.10;99.90;;;;;;4947091;29;20047;-72
2022/03/02 02:29:08;;;;;;;20.02;14.27;;;5.10;99.90;;;;;;4945143;28;20061;-71
2022/03/02 02:31:33;;;;;;;18.60;14.80;;;5.10;99.90;;;;;;4944875;29;20050;-72
2022/03/02 02:33:59;;;;;;;18.40;15.20;;;5.10;99.90;;;;;;4928160;29;20062;-72
2022/03/02 02:36:25;;;;;;;19.38;14.20;;;5.10;99.90;;;;;;4945262;28;20045;-72
2022/03/02 02:38:51;;;;;;;19.83;14.55;;;5.10;99.90;;;;;;4946077;29;20054;-72
2022/03/02 02:41:18;;;;;;;16.58;14.88;;;5.10;99.90;;;;;;4946106;28;20047;-72
2022/03/02 02:43:43;;;;;;;22.45;15.88;;;5.10;99.90;;;;;;4943933;29;20051;-72
2022/03/02 02:46:10;;;;;;;20.83;13.90;;;5.10;99.90;;;;;;4926977;29;20051;-72
2022/03/02 02:48:37;;;;;;;17.00;13.63;;;5.00;99.90;;;;;;4957308;28;20052;-72
2022/03/02 02:51:03;;;;;;;17.65;15.25;;;5.00;99.90;;;;;;4941447;28;20056;-71
2022/03/02 02:53:29;;;;;;;22.52;16.77;;;5.00;99.90;;;;;;4927022;29;20050;-71
2022/03/02 02:55:55;;;;;;;18.45;13.63;;;5.00;99.90;;;;;;4926528;29;20407;-71
2022/03/02 02:58:20;;;;;;;19.90;15.32;;;5.00;99.90;;;;;;4926898;29;20051;-72
2022/03/02 03:00:49;;;;;;;14.98;13.60;;;4.90;99.90;;;;;;4926665;29;20579;-72
2022/03/02 03:03:15;;;;;;;19.08;14.00;;;4.90;99.90;;;;;;4926006;29;20110;-72
2022/03/02 03:05:41;;;;;;;24.15;16.13;;;4.90;99.90;;;;;;4925844;29;20482;-72
2022/03/02 03:08:09;;;;;;;31.58;15.93;;;4.90;99.90;;;;;;4926666;29;20048;-72
2022/03/02 03:10:36;;;;;;;18.85;16.70;;;4.80;99.90;;;;;;4926737;29;20079;-71
2022/03/02 03:13:02;;;;;;;19.63;15.23;;;4.80;99.90;;;;;;4959858;28;20043;-72
2022/03/02 03:15:28;;;;;;;19.00;15.88;;;4.80;99.90;;;;;;4945866;28;20050;-71
2022/03/02 03:17:55;;;;;;;20.98;15.10;;;4.80;99.90;;;;;;4944609;28;20059;-72
2022/03/02 03:20:24;;;;;;;17.55;15.18;;;4.70;99.90;;;;;;4945422;28;20522;-72
2022/03/02 03:22:51;;;;;;;24.38;15.80;;;4.70;99.90;;;;;;4945515;28;20045;-72
2022/03/02 03:25:17;;;;;;;19.58;17.02;;;4.70;99.90;;;;;;4945436;28;20043;-72
2022/03/02 03:27:43;;;;;;;19.80;14.75;;;4.70;99.90;;;;;;4944506;29;20800;-71
2022/03/02 03:30:10;;;;;;;16.00;14.38;;;4.60;99.90;;;;;;4944863;28;20043;-72
2022/03/02 03:32:36;;;;;;;19.13;17.05;;;4.60;99.90;;;;;;4944270;28;20086;-72
2022/03/02 03:35:04;;;;;;;18.87;14.37;;;4.60;99.90;;;;;;4945140;28;20074;-72
2022/03/02 03:37:30;;;;;;;21.17;14.80;;;4.50;99.90;;;;;;4945244;28;20043;-72
2022/03/02 03:39:55;;;;;;;17.92;15.88;;;4.50;99.90;;;;;;4944976;28;20395;-72
2022/03/02 03:42:23;;;;;;;19.93;17.33;;;4.40;99.90;;;;;;4942960;28;20494;-72
2022/03/02 03:44:49;;;;;;;19.87;14.77;;;4.40;99.90;;;;;;4934215;29;20044;-72
2022/03/02 03:47:14;;;;;;;33.17;19.93;;;4.40;99.90;;;;;;4926338;29;20439;-73
2022/03/02 03:49:41;;;;;;;19.67;17.53;;;4.40;99.90;;;;;;4925620;29;20039;-71
2022/03/02 03:52:07;;;;;;;23.03;17.80;;;4.40;99.90;;;;;;4925898;29;20036;-72
2022/03/02 03:54:32;;;;;;;26.33;13.43;;;4.30;99.90;;;;;;4926088;29;20051;-72
2022/03/02 03:56:58;;;;;;;21.83;17.40;;;4.30;99.90;;;;;;4923464;29;20442;-72
2022/03/02 03:59:24;;;;;;;22.40;16.67;;;4.30;99.90;;;;;;4926058;29;20051;-72
2022/03/02 04:01:49;;;;;;;20.20;15.83;;;4.30;99.90;;;;;;4926487;28;20048;-72
2022/03/02 04:04:15;;;;;;;26.33;15.57;;;4.30;99.90;;;;;;4943103;28;20058;-72
2022/03/02 04:06:40;;;;;;;29.83;21.93;;;4.20;99.90;;;;;;4945480;28;20044;-71
2022/03/02 04:09:06;;;;;;;19.30;16.93;;;4.20;99.90;;;;;;4943295;28;20048;-71
2022/03/02 04:11:31;;;;;;;17.23;15.50;;;4.20;99.90;;;;;;4943798;29;20044;-71
2022/03/02 04:13:57;;;;;;;19.87;17.40;;;4.20;99.90;;;;;;4944682;29;20051;-71
2022/03/02 04:16:23;;;;;;;18.43;13.13;;;4.10;99.90;;;;;;4943655;28;20537;-71
2022/03/02 04:18:49;;;;;;;22.37;14.50;;;4.10;99.90;;;;;;4943206;29;20071;-71
2022/03/02 04:21:15;;;;;;;25.23;19.50;;;4.10;99.90;;;;;;4944721;28;20047;-71
2022/03/02 04:23:41;;;;;;;27.27;20.13;;;4.10;99.90;;;;;;4945127;28;20050;-71
2022/03/02 04:26:06;;;;;;;32.57;18.23;;;4.10;99.90;;;;;;4944397;28;20040;-71
2022/03/02 04:28:32;;;;;;;33.50;15.60;;;4.00;99.90;;;;;;4944757;29;20251;-71
2022/03/02 04:30:57;;;;;;;33.63;19.63;;;4.00;99.90;;;;;;4944461;28;20070;-72
2022/03/02 04:33:23;;;;;;;24.20;17.20;;;4.00;99.90;;;;;;4943957;28;20197;-72
2022/03/02 04:35:48;;;;;;;16.67;14.60;;;4.00;99.90;;;;;;4927282;29;20091;-72
2022/03/02 04:38:15;;;;;;;22.13;14.57;;;4.00;99.90;;;;;;4945199;29;20043;-71
2022/03/02 04:40:41;;;;;;;26.17;16.47;;;4.00;99.90;;;;;;4944950;28;20054;-71
2022/03/02 04:43:06;;;;;;;21.17;18.83;;;3.90;99.90;;;;;;4944368;28;20414;-71
2022/03/02 04:45:32;;;;;;;29.13;17.77;;;3.90;99.90;;;;;;4929313;28;20425;-71
2022/03/02 04:47:58;;;;;;;18.40;15.47;;;3.90;99.90;;;;;;4955404;28;20048;-72
2022/03/02 04:50:25;;;;;;;27.17;16.17;;;3.90;99.90;;;;;;4925877;29;20044;-71
2022/03/02 04:52:52;;;;;;;23.70;16.33;;;3.90;99.90;;;;;;4938225;28;20055;-72
2022/03/02 04:55:18;;;;;;;30.50;17.03;;;3.80;99.90;;;;;;4948163;28;20043;-72
2022/03/02 04:57:50;;;;;;;28.50;19.63;;;3.90;99.90;;;;;;4948631;28;20098;-71
2022/03/02 05:00:22;;;;;;;23.20;15.85;;;3.80;99.90;;;;;;4947096;28;20493;-72
2022/03/02 05:02:48;;;;;;;19.67;17.40;;;3.80;99.90;;;;;;4947339;28;20082;-72
2022/03/02 05:05:18;;;;;;;16.50;14.90;;;3.80;99.90;;;;;;4948488;29;20125;-72
2022/03/02 05:07:45;;;;;;;17.73;14.97;;;3.80;99.90;;;;;;4948213;28;20572;-71
2022/03/02 05:10:12;;;;;;;20.97;16.53;;;3.70;99.90;;;;;;4948279;28;20078;-72
2022/03/02 05:12:38;;;;;;;19.43;15.57;;;3.80;99.90;;;;;;4947386;28;20066;-72
2022/03/02 05:15:04;;;;;;;19.13;15.33;;;3.70;99.90;;;;;;4947336;28;20059;-72
2022/03/02 05:17:30;;;;;;;17.30;14.97;;;3.70;99.90;;;;;;4947054;28;20081;-72
2022/03/02 05:19:56;;;;;;;23.90;16.20;;;3.70;99.90;;;;;;4947867;29;20050;-71
2022/03/02 05:22:22;;;;;;;25.97;18.33;;;3.70;99.90;;;;;;4947852;29;20047;-72
2022/03/02 05:24:47;;;;;;;20.53;15.63;;;3.70;99.90;;;;;;4946260;29;20082;-72
2022/03/02 05:27:13;;;;;;;19.90;16.20;;;3.70;99.90;;;;;;4946672;28;20047;-72
2022/03/02 05:29:39;;;;;;;28.20;15.37;;;3.70;99.90;;;;;;4947811;28;20259;-71
2022/03/02 05:32:05;;;;;;;16.50;14.03;;;3.60;99.90;;;;;;4929606;29;20121;-71
2022/03/02 05:34:31;;;;;;;30.17;17.13;;;3.60;99.90;;;;;;4946853;28;20075;-71
2022/03/02 05:36:57;;;;;;;19.93;15.27;;;3.60;99.90;;;;;;4947137;28;20043;-71
2022/03/02 05:39:23;;;;;;;24.20;17.17;;;3.60;99.90;;;;;;4946757;28;20512;-72
2022/03/02 05:41:50;;;;;;;19.60;14.33;;;3.60;99.90;;;;;;4946822;28;20055;-72
2022/03/02 05:44:15;;;;;;;28.07;17.80;;;3.60;99.90;;;;;;4941772;28;20046;-72
2022/03/02 05:46:41;;;;;;;25.77;15.80;;;3.60;99.90;;;;;;4928554;29;20036;-71
2022/03/02 05:49:10;;;;;;;22.63;17.80;;;3.60;99.90;;;;;;4927158;29;20572;-71
2022/03/02 05:51:36;;;;;;;23.10;14.77;;;3.60;99.90;;;;;;4936610;29;20079;-71
2022/03/02 05:54:03;;;;;;;16.67;15.03;;;3.60;99.90;;;;;;4942539;28;20387;-71
2022/03/02 05:56:30;;;;;;;23.93;17.93;;;3.60;99.90;;;;;;4939628;28;20066;-71
2022/03/02 05:58:56;;;;;;;37.27;17.57;;;3.60;99.90;;;;;;4947172;28;20075;-73
2022/03/02 06:01:22;;;;;;;18.03;16.33;;;3.50;99.90;;;;;;4945794;29;20055;-74
2022/03/02 06:03:49;;;;;;;19.47;16.33;;;3.50;99.90;;;;;;4945070;28;20046;-74
2022/03/02 06:06:15;;;;;;;21.63;14.70;;;3.50;99.90;;;;;;4936144;29;20035;-74
2022/03/02 06:08:41;;;;;;;23.77;19.13;;;3.50;99.90;;;;;;4946484;28;20117;-74
2022/03/02 06:11:07;;;;;;;30.00;20.13;;;3.40;99.90;;;;;;4933083;28;20047;-73
2022/03/02 06:13:34;;;;;;;22.70;17.27;;;3.40;99.90;;;;;;4946566;29;20059;-73
2022/03/02 06:16:00;;;;;;;23.53;20.13;;;3.40;99.90;;;;;;4940191;28;20062;-74
2022/03/02 06:18:26;;;;;;;23.67;18.53;;;3.40;99.90;;;;;;4936915;28;20490;-72
2022/03/02 06:20:52;;;;;;;23.03;16.43;;;3.40;99.90;;;;;;4952009;28;20066;-72
2022/03/02 06:23:22;;;;;;;26.57;18.77;;;3.40;99.90;;;;;;4945170;28;20047;-72
2022/03/02 06:25:48;;;;;;;20.97;16.47;;;3.30;99.90;;;;;;4945615;28;20047;-72
2022/03/02 06:28:14;;;;;;;19.37;13.37;;;3.30;99.90;;;;;;4945503;29;20122;-72
2022/03/02 06:30:40;;;;;;;16.77;15.20;;;3.20;99.90;;;;;;4945972;28;20106;-72
2022/03/02 06:33:07;;;;;;;19.73;16.37;;;3.30;99.90;;;;;;4940519;28;20039;-73
2022/03/02 06:35:33;;;;;;;19.80;16.10;;;3.20;99.90;;;;;;4957275;28;20552;-73
2022/03/02 06:37:59;;;;;;;33.67;18.93;;;3.30;99.90;;;;;;4944240;29;20050;-72
2022/03/02 06:40:25;;;;;;;21.17;18.87;;;3.30;99.90;;;;;;4955759;28;20149;-74
2022/03/02 06:42:59;;;;;;;24.27;18.20;;;3.20;99.90;;;;;;4942351;28;20047;-74
2022/03/02 06:45:43;;;;;;;19.50;15.00;;;3.20;99.90;;;;;;4942272;29;20074;-71
2022/03/02 06:48:17;;;;;;;22.90;15.03;;;3.30;99.90;;;;;;4943541;29;20058;-72
2022/03/02 06:50:44;;;;;;;20.73;17.30;;;3.20;99.90;;;;;;4944480;29;20031;-71
2022/03/02 06:53:14;;;;;;;17.00;14.70;;;3.20;99.90;;;;;;4946039;28;20259;-71
2022/03/02 06:55:41;;;;;;;25.10;15.83;;;3.20;99.90;;;;;;4944165;28;20044;-71
2022/03/02 06:58:10;;;;;;;21.50;13.70;;;3.20;99.90;;;;;;4933105;28;20243;-73
2022/03/02 07:00:37;;;;;;;19.23;16.93;;;3.20;99.90;;;;;;4944889;28;20491;-72
2022/03/02 07:03:05;;;;;;;20.13;15.57;;;3.20;99.90;;;;;;4943144;28;20043;-71
2022/03/02 07:05:32;;;;;;;27.20;14.33;;;3.20;99.90;;;;;;4945220;28;20046;-71
2022/03/02 07:08:00;;;;;;;15.50;13.83;;;3.20;99.90;;;;;;4944863;28;20510;-71
2022/03/02 07:10:27;;;;;;;16.90;15.30;;;3.20;99.90;;;;;;4945178;28;20051;-71
2022/03/02 07:12:53;;;;;;;23.10;17.07;;;3.20;99.90;;;;;;4944842;28;20045;-71
2022/03/02 07:15:19;;;;;;;27.87;13.07;;;3.10;99.90;;;;;;4945565;29;20083;-71
2022/03/02 07:17:45;;;;;;;27.33;18.60;;;3.20;99.90;;;;;;4943834;28;20430;-73
2022/03/02 07:20:12;;;;;;;37.63;20.40;;;3.20;99.90;;;;;;4959328;28;20043;-71
2022/03/02 07:22:43;;;;;;;14.70;13.23;;;3.20;99.90;;;;;;4925744;29;20047;-71
2022/03/02 07:25:30;;;;;;;21.23;17.13;;;3.20;99.90;;;;;;4924851;29;20376;-71
2022/03/02 07:27:57;;;;;;;31.03;18.00;;;3.20;99.90;;;;;;4924828;29;20131;-71
2022/03/02 07:30:23;;;;;;;23.97;15.87;;;3.20;99.90;;;;;;4923896;29;20047;-71
2022/03/02 07:32:55;;;;;;;22.23;16.83;;;3.20;99.90;;;;;;4924554;29;20047;-71
2022/03/02 07:35:25;;;;;;;31.38;18.83;;;3.20;99.90;;;;;;4925340;29;20048;-71
2022/03/02 07:37:52;;;;;;;24.07;15.33;;;3.20;99.90;;;;;;4924873;29;20039;-71
2022/03/02 07:40:18;;;;;;;16.87;13.43;;;3.20;99.90;;;;;;4924908;29;20048;-70
2022/03/02 07:42:45;;;;;;;18.80;15.70;;;3.20;99.90;;;;;;4925044;29;20036;-71
2022/03/02 07:45:10;;;;;;;27.47;17.20;;;3.30;99.90;;;;;;4937737;29;20062;-71
2022/03/02 07:47:36;;;;;;;20.93;11.43;;;3.30;99.90;;;;;;4941937;29;20043;-71
2022/03/02 07:50:02;;;;;;;19.63;14.20;;;3.30;99.90;;;;;;4944348;29;20051;-71
2022/03/02 07:52:29;;;;;;;16.97;14.40;;;3.30;99.90;;;;;;4944226;28;20067;-71
2022/03/02 07:54:59;;;;;;;20.87;13.30;;;3.30;99.90;;;;;;4942957;29;20053;-71
2022/03/02 07:57:28;;;;;;;13.20;11.80;;;3.40;99.90;;;;;;4943804;28;20078;-70
2022/03/02 07:59:57;;;;;;;28.70;17.93;;;3.30;99.90;;;;;;4943999;28;20143;-71
2022/03/02 08:02:24;;;;;;;26.07;18.00;;;3.30;99.90;;;;;;4942752;28;20047;-71
2022/03/02 08:04:51;;;;;;;27.13;16.30;;;3.40;99.90;;;;;;4943731;28;20047;-71
2022/03/02 08:07:17;;;;;;;21.03;13.67;;;3.40;99.90;;;;;;4942481;29;20740;-71
2022/03/02 08:09:44;;;;;;;36.97;20.17;;;3.40;99.90;;;;;;4942553;28;20043;-71
2022/03/02 08:12:11;;;;;;;20.03;16.13;;;3.40;99.90;;;;;;4958784;28;20051;-71
2022/03/02 08:14:36;;;;;;;14.77;12.47;;;3.50;99.90;;;;;;4943802;28;20499;-71
2022/03/02 08:17:03;;;;;;;20.93;16.87;;;3.50;99.90;;;;;;4943073;28;20130;-71
2022/03/02 08:19:30;;;;;;;20.57;16.50;;;3.50;99.90;;;;;;4958935;28;20051;-71
2022/03/02 08:22:09;;;;;;;18.33;13.17;;;3.60;99.90;;;;;;4943730;28;20098;-71
2022/03/02 08:24:41;;;;;;;16.70;15.07;;;3.60;99.90;;;;;;4943864;28;20055;-70
2022/03/02 08:27:10;;;;;;;26.17;15.13;;;3.60;99.90;;;;;;4943741;28;20039;-71
2022/03/02 08:29:37;;;;;;;16.23;14.70;;;3.60;99.90;;;;;;4961642;28;20046;-71
2022/03/02 08:32:04;;;;;;;18.13;14.97;;;3.60;99.90;;;;;;4946538;28;20086;-71
2022/03/02 08:34:32;;;;;;;24.57;16.03;;;3.60;99.90;;;;;;4947444;28;20192;-71
2022/03/02 08:36:59;;;;;;;26.13;18.00;;;3.70;99.90;;;;;;4946980;28;20370;-71
2022/03/02 08:39:26;;;;;;;17.70;15.83;;;3.70;99.90;;;;;;4962487;28;20691;-71
2022/03/02 08:41:52;;;;;;;27.87;16.70;;;3.70;99.90;;;;;;4945567;29;20110;-71
2022/03/02 08:44:19;;;;;;;21.70;16.20;;;3.80;99.90;;;;;;4941696;28;20402;-71
2022/03/02 08:46:45;;;;;;;18.73;13.97;;;3.80;99.90;;;;;;4927093;29;20052;-72
2022/03/02 08:49:12;;;;;;;30.93;16.07;;;3.80;99.90;;;;;;4928433;29;20051;-71
2022/03/02 08:51:39;;;;;;;25.77;18.10;;;3.90;99.90;;;;;;4928233;29;20044;-71
2022/03/02 08:54:05;;;;;;;22.40;17.33;;;3.90;99.90;;;;;;4926399;29;20051;-71
2022/03/02 08:56:37;;;;;;;37.47;16.83;;;3.90;99.90;;;;;;4928236;29;20050;-71
2022/03/02 08:59:04;;;;;;;14.23;13.10;;;4.00;99.90;;;;;;4927519;29;20055;-71
2022/03/02 09:01:31;;;;;;;24.63;18.23;;;4.00;99.90;;;;;;4927966;29;20118;-70
2022/03/02 09:03:58;;;;;;;23.30;16.60;;;4.00;99.90;;;;;;4925477;29;20047;-71
2022/03/02 09:06:27;;;;;;;20.20;17.43;;;4.00;99.90;;;;;;4927840;29;20051;-71
2022/03/02 09:08:53;;;;;;;20.30;13.97;;;4.10;99.90;;;;;;4927559;29;20483;-71
2022/03/02 09:11:18;;;;;;;32.27;18.37;;;4.10;99.90;;;;;;4927542;29;20046;-71
2022/03/02 09:13:44;;;;;;;23.67;17.23;;;4.10;99.90;;;;;;4928159;29;20048;-71
2022/03/02 09:16:12;;;;;;;24.07;17.33;;;4.10;99.90;;;;;;4928092;29;20048;-71
2022/03/02 09:18:38;;;;;;;30.33;19.83;;;4.20;99.90;;;;;;4926807;29;20055;-71
2022/03/02 09:21:05;;;;;;;14.67;13.13;;;4.20;99.90;;;;;;4927702;29;20040;-71
2022/03/02 09:23:38;;;;;;;20.43;15.43;;;4.20;99.90;;;;;;4926463;29;20459;-71
2022/03/02 09:26:05;;;;;;;;;;;4.20;99.90;;;;;;4926333;29;20047;-71
2022/03/02 09:28:36;;;;;;;20.53;14.70;;;4.30;99.90;;;;;;4927204;29;20039;-71
2022/03/02 09:31:04;;;;;;;19.50;17.65;;;4.30;99.90;;;;;;4925846;29;20474;-71
2022/03/02 09:33:31;;;;;;;19.17;17.13;;;4.30;99.90;;;;;;4926570;29;20380;-71
2022/03/02 09:36:00;;;;;;;20.27;16.00;;;4.40;99.90;;;;;;4927123;29;20220;-71
2022/03/02 09:38:27;;;;;;;21.63;14.40;;;4.40;99.90;;;;;;4926714;29;20097;-71
2022/03/02 09:40:55;;;;;;;18.07;14.03;;;4.40;99.90;;;;;;4925801;29;20036;-71
2022/03/02 09:43:25;;;;;;;22.67;14.93;;;4.40;99.90;;;;;;4925753;29;20051;-71
2022/03/02 09:45:54;;;;;;;15.90;14.17;;;4.50;99.90;;;;;;4944944;29;20198;-71
2022/03/02 09:48:31;;;;;;;19.60;15.33;;;4.60;99.90;;;;;;4944194;29;20059;-71
2022/03/02 09:51:06;;;;;;;24.40;18.67;;;4.60;99.90;;;;;;4944750;28;20414;-71
2022/03/02 09:53:35;;;;;;;23.80;16.60;;;4.60;99.90;;;;;;4944924;28;20359;-71
2022/03/02 09:56:04;;;;;;;29.73;17.08;;;4.60;99.90;;;;;;4944790;28;20192;-71
2022/03/02 09:58:30;;;;;;;36.60;14.50;;;4.60;99.90;;;;;;4960919;28;20363;-71
2022/03/02 10:00:57;;;;;;;16.80;13.57;;;4.70;99.90;;;;;;4945675;28;20063;-71
2022/03/02 10:03:27;;;;;;;17.88;15.68;;;4.70;99.90;;;;;;4943477;28;20062;-71
2022/03/02 10:05:53;;;;;;;23.85;14.00;;;4.80;99.90;;;;;;4945522;28;20043;-71
2022/03/02 10:08:21;;;;;;;16.98;15.18;;;4.80;99.90;;;;;;4945550;28;20081;-71
2022/03/02 10:10:48;;;;;;;17.60;12.85;;;4.80;99.90;;;;;;4945409;28;20127;-71
2022/03/02 10:13:16;;;;;;;23.52;13.15;;;4.80;99.90;;;;;;4946092;28;20048;-71
2022/03/02 10:15:43;;;;;;;18.10;13.90;;;4.90;99.90;;;;;;4960625;28;20055;-71
2022/03/02 10:18:12;;;;;;;22.27;13.90;;;4.90;99.90;;;;;;4944649;28;20046;-71
2022/03/02 10:20:43;;;;;;;19.40;15.10;;;4.90;99.90;;;;;;4945475;28;20625;-71
2022/03/02 10:23:18;;;;;;;17.95;15.13;;;4.90;99.90;;;;;;4945431;28;20178;-71
2022/03/02 10:26:11;;;;;;;22.23;17.05;;;5.00;99.90;;;;;;4944381;29;20258;-71
2022/03/02 10:29:03;;;;;;;17.63;13.30;;;5.00;99.90;;;;;;4945548;28;20133;-71
2022/03/02 10:31:31;;;;;;;23.35;15.25;;;5.00;99.90;;;;;;4943460;29;20074;-71
2022/03/02 10:34:07;;;;;;;15.07;13.00;;;5.10;99.90;;;;;;4945234;29;20059;-71
2022/03/02 10:36:40;;;;;;;17.77;15.98;;;5.00;99.90;;;;;;4945337;28;20506;-71
2022/03/02 10:39:06;;;;;;;;;;;5.10;99.90;;;;;;4943993;29;20047;-71
2022/03/02 10:41:37;;;;;;;15.02;13.02;;;5.20;99.90;;;;;;4943823;28;19922;-71
2022/03/02 10:44:26;;;;;;;20.25;18.48;;;5.20;99.90;;;;;;4940104;28;20040;-71
2022/03/02 10:47:04;;;;;;;17.75;14.30;;;5.20;99.90;;;;;;4925042;29;20087;-71
2022/03/02 10:49:32;;;;;;;21.58;16.25;;;5.30;99.90;;;;;;4925800;29;20052;-71
2022/03/02 10:52:00;;;;;;;16.55;14.75;;;5.30;99.90;;;;;;4925449;29;20050;-71
2022/03/02 10:54:27;;;;;;;25.33;16.40;;;5.30;99.90;;;;;;4925563;29;20051;-71
2022/03/02 10:56:53;;;;;;;27.23;13.93;;;5.30;99.90;;;;;;4925596;29;20660;-71
2022/03/02 10:59:23;;;;;;;13.13;11.60;;;5.30;99.90;;;;;;4924162;29;20051;-71
2022/03/02 11:01:50;;;;;;;17.20;15.35;;;5.40;99.90;;;;;;4923022;29;20491;-71
2022/03/02 11:04:19;;;;;;;14.75;13.32;;;5.40;99.90;;;;;;4925671;29;20044;-71
2022/03/02 11:06:45;;;;;;;16.17;14.40;;;5.40;99.90;;;;;;4923840;29;20044;-72
2022/03/02 11:09:11;;;;;;;14.25;12.73;;;5.50;99.90;;;;;;4924221;29;20051;-71
2022/03/02 11:11:37;;;;;;;35.63;16.02;;;5.50;99.90;;;;;;4925054;29;20106;-71
2022/03/02 11:14:04;;;;;;;16.35;14.35;;;5.50;99.90;;;;;;4925215;29;20059;-71
2022/03/02 11:16:30;;;;;;;18.42;15.32;;;5.50;99.90;;;;;;4924655;29;20032;-71
2022/03/02 11:18:57;;;;;;;15.93;14.10;;;5.60;99.90;;;;;;4924870;29;20054;-71
2022/03/02 11:21:31;;;;;;;17.17;11.77;;;5.60;99.90;;;;;;4923481;29;20058;-71
2022/03/02 11:24:04;;;;;;;22.63;14.02;;;5.60;99.90;;;;;;4924892;29;20084;-71
2022/03/02 11:26:32;;;;;;;15.50;11.70;;;5.70;99.90;;;;;;4936082;29;20576;-71
2022/03/02 11:29:01;;;;;;;24.77;14.50;;;5.70;99.90;;;;;;4943157;29;20061;-71
2022/03/02 11:31:31;;;;;;;33.30;14.98;;;5.70;99.90;;;;;;4941027;28;21100;-71
2022/03/02 11:34:12;;;;;;;24.90;13.63;;;5.80;99.90;;;;;;4942397;29;20055;-71
2022/03/02 11:36:39;;;;;;;19.70;14.20;;;5.80;99.90;;;;;;4945351;28;20402;-71
2022/03/02 11:39:06;;;;;;;15.65;14.15;;;5.80;99.90;;;;;;4944575;29;20101;-72
2022/03/02 11:41:34;;;;;;;18.73;12.93;;;5.90;99.90;;;;;;4945023;28;20061;-71
2022/03/02 11:44:01;;;;;;;19.02;14.23;;;5.80;99.90;;;;;;4940015;29;20112;-71
2022/03/02 11:46:27;;;;;;;17.08;14.30;;;5.90;99.90;;;;;;4925253;29;20067;-71
2022/03/02 11:48:53;;;;;;;17.05;13.57;;;5.90;99.90;;;;;;4925879;29;20047;-72
2022/03/02 11:51:23;;;;;;;17.27;14.68;;;5.90;99.90;;;;;;4925664;29;20450;-71
2022/03/02 11:54:00;;;;;;;15.15;13.55;;;5.90;99.90;;;;;;4935329;29;20388;-71
2022/03/02 11:56:29;;;;;;;19.17;13.40;;;5.90;99.90;;;;;;4944002;28;20066;-72
2022/03/02 11:59:02;;;;;;;21.38;15.05;;;6.00;99.90;;;;;;4944170;28;20043;-72
2022/03/02 12:01:45;;;;;;;13.27;11.52;;;6.00;99.90;;;;;;4933745;29;20055;-72
2022/03/02 12:04:14;;;;;;;14.18;11.50;;;6.00;99.90;;;;;;4918545;29;20127;-72
2022/03/02 12:06:52;;;;;;;13.40;11.82;;;6.00;99.90;;;;;;4929914;29;20141;-72
2022/03/02 12:09:28;;;;;;;20.65;12.00;;;6.10;99.90;;;;;;4925182;29;20325;-70
2022/03/02 12:12:05;;;;;;;21.80;15.07;;;6.10;99.90;;;;;;4924994;29;20502;-70
2022/03/02 12:14:40;;;;;;;13.73;12.45;;;6.20;99.90;;;;;;4939650;29;20141;-70
2022/03/02 12:17:13;;;;;;;15.40;12.98;;;6.20;99.90;;;;;;4937720;29;20051;-71
2022/03/02 12:19:39;;;;;;;14.25;12.27;;;6.20;99.90;;;;;;4943147;29;20043;-71
2022/03/02 12:22:06;;;;;;;18.17;16.30;;;6.20;99.90;;;;;;4943548;28;20070;-71
2022/03/02 12:24:33;;;;;;;22.13;13.35;;;6.20;99.90;;;;;;4944844;28;20040;-75
2022/03/02 12:27:10;;;;;;;16.38;11.60;;;6.30;99.90;;;;;;4940994;28;20047;-73
2022/03/02 12:29:39;;;;;;;11.07;9.93;;;6.30;99.90;;;;;;4939357;28;20039;-73
2022/03/02 12:32:09;;;;;;;13.15;11.25;;;6.30;99.90;;;;;;4942276;29;20126;-74
2022/03/02 12:34:40;;;;;;;17.20;13.63;;;6.30;99.90;;;;;;4943171;28;20166;-73
2022/03/02 12:37:07;;;;;;;11.73;10.52;;;6.40;99.90;;;;;;4937714;28;20054;-73
2022/03/02 12:39:34;;;;;;;17.60;11.77;;;6.30;99.90;;;;;;4942137;28;20047;-72